Time;durP1;ratioP1;P1;durP2;ratioP2;P2;SDS_P1;SDS_P2;PMS_P1;PMS_P2;Temp;Humidity;BMP_temperature;BMP_pressure;BME280_temperature;BME280_humidity;BME280_pressure;Samples;Min_cycle;Max_cycle;Signal;HPM_P1;HPM_P2
2023/06/17 00:01:23;;;;;;;9.27;6.32;;;;;;;;;;6301633;22;20165;-91
2023/06/17 00:04:29;;;;;;;11.48;6.03;;;;;;;;;;6303817;22;20153;-90
2023/06/17 00:07:33;;;;;;;9.80;6.53;;;;;;;;;;6303370;22;20238;-92
2023/06/17 00:10:40;;;;;;;11.73;6.13;;;;;;;;;;6303599;22;20189;-91
2023/06/17 00:13:46;;;;;;;8.55;5.65;;;;;;;;;;6302592;22;20822;-91
2023/06/17 00:16:51;;;;;;;10.73;5.80;;;;;;;;;;6303039;22;20165;-90
2023/06/17 00:19:56;;;;;;;13.60;6.50;;;;;;;;;;6303315;22;20177;-91
2023/06/17 00:23:01;;;;;;;12.60;7.32;;;;;;;;;;6303133;22;20280;-92
2023/06/17 00:26:08;;;;;;;11.40;6.45;;;;;;;;;;6303411;22;20169;-91
2023/06/17 00:29:15;;;;;;;12.18;5.90;;;;;;;;;;6303453;22;20185;-90
2023/06/17 00:32:20;;;;;;;13.32;6.40;;;;;;;;;;6302517;22;20227;-90
2023/06/17 00:35:26;;;;;;;12.57;6.07;;;;;;;;;;6302943;22;20184;-90
2023/06/17 00:38:31;;;;;;;9.38;5.80;;;;;;;;;;6302418;22;20192;-92
2023/06/17 00:41:37;;;;;;;14.35;6.00;;;;;;;;;;6303090;22;20164;-91
2023/06/17 00:44:43;;;;;;;20.33;6.78;;;;;;;;;;6302722;22;20203;-91
2023/06/17 00:47:48;;;;;;;11.10;6.18;;;;;;;;;;6300577;22;20164;-90
2023/06/17 00:50:53;;;;;;;12.90;5.82;;;;;;;;;;6298759;22;20190;-90
2023/06/17 00:53:58;;;;;;;12.10;6.20;;;;;;;;;;6302553;22;20165;-91
2023/06/17 00:57:07;;;;;;;12.32;7.00;;;;;;;;;;6301121;22;20161;-91
2023/06/17 01:00:38;;;;;;;10.93;7.10;;;;;;;;;;6300273;22;20165;-92
2023/06/17 01:03:45;;;;;;;15.77;8.05;;;;;;;;;;6300330;22;20161;-91
2023/06/17 01:06:55;;;;;;;15.93;8.77;;;;;;;;;;6300839;22;20164;-91
2023/06/17 01:10:03;;;;;;;15.90;8.75;;;;;;;;;;6302225;22;20199;-89
2023/06/17 01:13:12;;;;;;;16.35;9.02;;;;;;;;;;6302095;22;20157;-91
2023/06/17 01:16:17;;;;;;;15.52;8.65;;;;;;;;;;6302864;22;20161;-90
2023/06/17 01:19:22;;;;;;;16.00;8.82;;;;;;;;;;6300818;22;20177;-91
2023/06/17 01:22:28;;;;;;;15.60;8.35;;;;;;;;;;6301847;22;20185;-91
2023/06/17 01:25:34;;;;;;;16.95;8.95;;;;;;;;;;6300883;22;20608;-90
2023/06/17 01:28:40;;;;;;;16.67;8.43;;;;;;;;;;6300765;22;20493;-90
2023/06/17 01:31:48;;;;;;;14.10;8.63;;;;;;;;;;6300770;22;20193;-91
2023/06/17 01:34:57;;;;;;;19.60;8.85;;;;;;;;;;6301252;22;20161;-90
2023/06/17 01:38:07;;;;;;;12.13;7.63;;;;;;;;;;6301692;22;20149;-91
2023/06/17 01:41:17;;;;;;;16.73;8.10;;;;;;;;;;6300837;22;20639;-90
2023/06/17 01:44:22;;;;;;;15.90;8.40;;;;;;;;;;6299097;22;20165;-91
2023/06/17 01:47:27;;;;;;;15.80;8.45;;;;;;;;;;6299115;22;20154;-91
2023/06/17 01:50:32;;;;;;;16.45;7.80;;;;;;;;;;6297902;22;20510;-91
2023/06/17 01:53:37;;;;;;;15.18;7.90;;;;;;;;;;6298074;22;20152;-91
2023/06/17 01:56:57;;;;;;;13.07;7.53;;;;;;;;;;6296756;22;20620;-91
2023/06/17 02:00:05;;;;;;;13.35;7.78;;;;;;;;;;6296499;22;20164;-90
2023/06/17 02:03:10;;;;;;;11.75;7.47;;;;;;;;;;6299069;22;20183;-90
2023/06/17 02:06:16;;;;;;;14.20;7.82;;;;;;;;;;6296835;22;20233;-90
2023/06/17 02:09:21;;;;;;;14.25;7.78;;;;;;;;;;6298598;22;20172;-90
2023/06/17 02:12:28;;;;;;;13.82;7.60;;;;;;;;;;6299337;22;20252;-91
2023/06/17 02:15:33;;;;;;;12.18;7.78;;;;;;;;;;6299637;22;20169;-91
2023/06/17 02:18:39;;;;;;;15.30;8.88;;;;;;;;;;6299964;22;20173;-93
2023/06/17 02:21:44;;;;;;;13.02;8.43;;;;;;;;;;6298073;22;20169;-91
2023/06/17 02:24:50;;;;;;;18.52;9.20;;;;;;;;;;6299038;22;20152;-91
2023/06/17 02:27:56;;;;;;;17.40;8.93;;;;;;;;;;6299588;22;20165;-90
2023/06/17 02:31:01;;;;;;;12.98;8.75;;;;;;;;;;6299482;22;20189;-90
2023/06/17 02:34:06;;;;;;;12.48;8.02;;;;;;;;;;6299705;22;20169;-90
2023/06/17 02:37:12;;;;;;;17.67;8.60;;;;;;;;;;6300685;22;20169;-91
2023/06/17 02:40:17;;;;;;;15.15;8.60;;;;;;;;;;6299602;22;20245;-90
2023/06/17 02:43:23;;;;;;;13.73;8.38;;;;;;;;;;6300578;22;20212;-91
2023/06/17 02:46:29;;;;;;;13.77;8.68;;;;;;;;;;6301465;22;20287;-92
2023/06/17 02:49:34;;;;;;;15.80;9.02;;;;;;;;;;6301337;22;20215;-91
2023/06/17 02:52:39;;;;;;;14.48;8.63;;;;;;;;;;6301577;22;20196;-90
2023/06/17 02:56:11;;;;;;;16.13;8.35;;;;;;;;;;6299540;22;20200;-91
2023/06/17 02:59:18;;;;;;;15.50;9.18;;;;;;;;;;6302995;22;20164;-90
2023/06/17 03:02:24;;;;;;;12.48;8.38;;;;;;;;;;6302692;22;20169;-91
2023/06/17 03:05:30;;;;;;;14.68;8.90;;;;;;;;;;6302379;22;20187;-91
2023/06/17 03:08:37;;;;;;;15.98;8.88;;;;;;;;;;6299917;22;20166;-91
2023/06/17 03:11:42;;;;;;;16.63;9.13;;;;;;;;;;6300699;22;20191;-91
2023/06/17 03:14:49;;;;;;;17.55;9.13;;;;;;;;;;6301872;22;20719;-90
2023/06/17 03:18:00;;;;;;;16.75;10.00;;;;;;;;;;6299403;22;20169;-90
2023/06/17 03:21:06;;;;;;;15.73;9.73;;;;;;;;;;6300460;22;20176;-90
2023/06/17 03:24:13;;;;;;;17.63;9.45;;;;;;;;;;6299856;22;20162;-91
2023/06/17 03:27:19;;;;;;;16.92;9.18;;;;;;;;;;6300669;22;20174;-92
2023/06/17 03:30:26;;;;;;;16.80;9.77;;;;;;;;;;6301514;22;20177;-90
2023/06/17 03:33:32;;;;;;;13.60;8.40;;;;;;;;;;6299960;22;20247;-91
2023/06/17 03:36:39;;;;;;;16.10;9.02;;;;;;;;;;6301086;22;20233;-90
2023/06/17 03:39:44;;;;;;;16.73;8.40;;;;;;;;;;6299410;22;20235;-92
2023/06/17 03:42:50;;;;;;;13.10;8.43;;;;;;;;;;6301565;22;20157;-92
2023/06/17 03:45:56;;;;;;;14.10;8.68;;;;;;;;;;6301365;22;20165;-90
2023/06/17 03:49:02;;;;;;;13.82;8.10;;;;;;;;;;6299604;22;20169;-91
2023/06/17 03:52:07;;;;;;;15.10;8.45;;;;;;;;;;6301249;22;20192;-91
2023/06/17 03:55:13;;;;;;;13.02;8.18;;;;;;;;;;6300564;22;20164;-92
2023/06/17 03:58:18;;;;;;;12.40;8.35;;;;;;;;;;6304612;22;20219;-92
2023/06/17 04:01:30;;;;;;;14.50;7.75;;;;;;;;;;6303718;22;20168;-90
2023/06/17 04:04:36;;;;;;;14.75;8.27;;;;;;;;;;6304004;22;20216;-90
2023/06/17 04:07:42;;;;;;;15.10;8.20;;;;;;;;;;6300920;22;20211;-90
2023/06/17 04:10:47;;;;;;;15.35;7.85;;;;;;;;;;6303008;22;20502;-92
2023/06/17 04:13:53;;;;;;;12.93;8.13;;;;;;;;;;6301898;22;20204;-91
2023/06/17 04:17:01;;;;;;;13.48;8.40;;;;;;;;;;6301240;22;20169;-91
2023/06/17 04:20:10;;;;;;;11.57;7.63;;;;;;;;;;6299796;22;20315;-91
2023/06/17 04:23:16;;;;;;;13.55;8.18;;;;;;;;;;6301210;22;20165;-90
2023/06/17 04:26:22;;;;;;;13.52;7.32;;;;;;;;;;6300484;22;20165;-92
2023/06/17 04:29:29;;;;;;;13.82;7.95;;;;;;;;;;6301718;22;20164;-91
2023/06/17 04:32:38;;;;;;;12.57;7.60;;;;;;;;;;6298714;22;20200;-93
2023/06/17 04:35:49;;;;;;;12.32;7.85;;;;;;;;;;6300787;22;20165;-92
2023/06/17 04:38:56;;;;;;;11.45;7.60;;;;;;;;;;6301559;22;20170;-91
2023/06/17 04:42:02;;;;;;;15.43;8.35;;;;;;;;;;6300885;22;20195;-88
2023/06/17 04:45:09;;;;;;;13.95;8.30;;;;;;;;;;6301163;22;20235;-91
2023/06/17 04:48:16;;;;;;;13.98;8.88;;;;;;;;;;6299718;22;20177;-91
2023/06/17 04:51:21;;;;;;;15.95;9.15;;;;;;;;;;6300402;22;20197;-92
2023/06/17 04:54:26;;;;;;;17.08;9.50;;;;;;;;;;6299933;22;20169;-92
2023/06/17 04:57:36;;;;;;;14.30;8.80;;;;;;;;;;6300273;22;20165;-92
2023/06/17 05:04:14;;;;;;;16.00;9.30;;;;;;;;;;6302354;22;20189;-93
2023/06/17 05:07:20;;;;;;;16.58;10.40;;;;;;;;;;6299878;22;20490;-92
2023/06/17 05:10:25;;;;;;;14.98;9.05;;;;;;;;;;6301066;22;20150;-90
2023/06/17 05:13:30;;;;;;;17.27;9.05;;;;;;;;;;6297370;22;20731;-92
2023/06/17 05:16:37;;;;;;;18.02;9.57;;;;;;;;;;6301547;22;20157;-91
2023/06/17 05:19:43;;;;;;;22.23;10.05;;;;;;;;;;6301810;22;20176;-89
2023/06/17 05:22:48;;;;;;;18.38;9.57;;;;;;;;;;6302016;22;20615;-93
2023/06/17 05:25:53;;;;;;;18.58;9.38;;;;;;;;;;6300381;22;20169;-92
2023/06/17 05:28:59;;;;;;;14.80;9.10;;;;;;;;;;6299396;22;20169;-91
2023/06/17 05:32:05;;;;;;;24.38;12.23;;;;;;;;;;6300366;22;20251;-90
2023/06/17 05:35:11;;;;;;;16.10;8.93;;;;;;;;;;6302415;22;20161;-90
2023/06/17 05:38:17;;;;;;;14.82;9.50;;;;;;;;;;6299905;22;20262;-91
2023/06/17 05:41:23;;;;;;;16.05;9.35;;;;;;;;;;6298614;22;20508;-90
2023/06/17 05:44:27;;;;;;;15.75;9.35;;;;;;;;;;6298039;22;20165;-90
2023/06/17 05:47:34;;;;;;;13.63;8.85;;;;;;;;;;6299364;22;20157;-91
2023/06/17 05:50:40;;;;;;;14.82;9.13;;;;;;;;;;6300227;22;20184;-92
2023/06/17 05:53:46;;;;;;;18.35;9.20;;;;;;;;;;6301119;22;20165;-92
2023/06/17 05:56:58;;;;;;;16.85;9.18;;;;;;;;;;6299384;22;20219;-89
2023/06/17 06:00:03;;;;;;;17.40;9.00;;;;;;;;;;6299846;22;20204;-91
2023/06/17 06:03:19;;;;;;;16.10;9.57;;;;;;;;;;6321439;22;20146;-91
2023/06/17 06:06:25;;;;;;;14.30;9.68;;;;;;;;;;6302190;22;20774;-91
2023/06/17 06:09:30;;;;;;;16.73;9.52;;;;;;;;;;6300588;22;20161;-89
2023/06/17 06:12:36;;;;;;;17.35;9.77;;;;;;;;;;6301865;22;20192;-91
2023/06/17 06:15:41;;;;;;;17.88;9.93;;;;;;;;;;6300476;22;20164;-91
2023/06/17 06:18:47;;;;;;;19.02;9.70;;;;;;;;;;6303515;22;20165;-91
2023/06/17 06:21:54;;;;;;;16.75;10.07;;;;;;;;;;6303634;22;20169;-90
2023/06/17 06:25:00;;;;;;;19.35;10.38;;;;;;;;;;6302877;22;20165;-92
2023/06/17 06:28:05;;;;;;;18.52;10.60;;;;;;;;;;6304339;22;20181;-91
2023/06/17 06:31:11;;;;;;;18.02;11.38;;;;;;;;;;6305455;22;20204;-92
2023/06/17 06:34:16;;;;;;;24.45;10.57;;;;;;;;;;6303617;22;20169;-92
2023/06/17 06:37:23;;;;;;;18.13;10.55;;;;;;;;;;6304582;22;20169;-92
2023/06/17 06:40:28;;;;;;;16.23;10.30;;;;;;;;;;6304303;22;20235;-91
2023/06/17 06:43:33;;;;;;;20.60;10.40;;;;;;;;;;6303214;22;20169;-91
2023/06/17 06:46:42;;;;;;;14.25;9.18;;;;;;;;;;6303666;22;20153;-90
2023/06/17 06:49:47;;;;;;;16.95;10.10;;;;;;;;;;6302156;22;20161;-92
2023/06/17 06:52:54;;;;;;;17.75;10.68;;;;;;;;;;6303731;22;20247;-92
2023/06/17 06:56:05;;;;;;;18.42;9.88;;;;;;;;;;6302533;22;20177;-91
2023/06/17 06:59:14;;;;;;;16.40;9.88;;;;;;;;;;6301705;22;20237;-91
2023/06/17 07:02:19;;;;;;;18.98;11.82;;;;;;;;;;6302742;22;20173;-90
2023/06/17 07:05:25;;;;;;;15.18;9.40;;;;;;;;;;6297466;22;20169;-89
2023/06/17 07:08:37;;;;;;;17.30;9.82;;;;;;;;;;6300468;22;20261;-90
2023/06/17 07:11:42;;;;;;;15.80;9.45;;;;;;;;;;6303481;22;20166;-90
2023/06/17 07:14:47;;;;;;;16.38;9.48;;;;;;;;;;6300131;22;20247;-89
2023/06/17 07:17:53;;;;;;;17.52;9.68;;;;;;;;;;6301347;22;20173;-90
2023/06/17 07:20:58;;;;;;;17.13;8.80;;;;;;;;;;6301185;22;21022;-89
2023/06/17 07:24:05;;;;;;;14.90;8.73;;;;;;;;;;6303686;22;20149;-91
2023/06/17 07:27:10;;;;;;;17.77;9.30;;;;;;;;;;6303965;22;20162;-92
2023/06/17 07:30:16;;;;;;;16.77;9.10;;;;;;;;;;6301196;22;20173;-90
2023/06/17 07:33:21;;;;;;;15.13;8.48;;;;;;;;;;6300934;22;20193;-90
2023/06/17 07:36:26;;;;;;;12.20;7.75;;;;;;;;;;6304630;22;20165;-91
2023/06/17 07:39:32;;;;;;;15.35;8.88;;;;;;;;;;6302254;22;20532;-89
2023/06/17 07:42:38;;;;;;;12.73;8.30;;;;;;;;;;6302911;22;20169;-90
2023/06/17 07:45:44;;;;;;;18.27;8.90;;;;;;;;;;6302434;22;20169;-90
2023/06/17 07:48:49;;;;;;;14.50;8.68;;;;;;;;;;6303010;22;20612;-91
2023/06/17 07:51:55;;;;;;;16.83;9.02;;;;;;;;;;6303182;22;20225;-91
2023/06/17 07:55:02;;;;;;;16.67;8.98;;;;;;;;;;6303959;22;20783;-89
2023/06/17 07:58:13;;;;;;;16.98;8.20;;;;;;;;;;6322364;22;20161;-89
2023/06/17 08:01:22;;;;;;;13.43;7.90;;;;;;;;;;6303967;22;20157;-92
2023/06/17 08:04:27;;;;;;;14.25;8.55;;;;;;;;;;6325491;22;20168;-91
2023/06/17 08:07:38;;;;;;;13.07;7.53;;;;;;;;;;6304174;22;20165;-90
2023/06/17 08:10:45;;;;;;;13.70;7.97;;;;;;;;;;6303565;22;20204;-90
2023/06/17 08:13:50;;;;;;;16.23;8.10;;;;;;;;;;6300760;22;20197;-89
2023/06/17 08:16:56;;;;;;;15.05;7.22;;;;;;;;;;6302794;22;20276;-88
2023/06/17 08:20:00;;;;;;;14.18;8.27;;;;;;;;;;6301221;22;20192;-89
2023/06/17 08:23:05;;;;;;;12.35;7.70;;;;;;;;;;6302730;22;20254;-90
2023/06/17 08:26:12;;;;;;;14.60;8.07;;;;;;;;;;6302612;22;20208;-89
2023/06/17 08:29:18;;;;;;;17.05;7.53;;;;;;;;;;6301312;22;20185;-89
2023/06/17 08:32:23;;;;;;;13.00;7.95;;;;;;;;;;6320501;22;20270;-90
2023/06/17 08:35:28;;;;;;;16.83;6.88;;;;;;;;;;6305106;22;20221;-89
2023/06/17 08:38:33;;;;;;;10.68;6.97;;;;;;;;;;6303675;22;20498;-90
2023/06/17 08:41:41;;;;;;;12.30;7.18;;;;;;;;;;6301244;22;20516;-89
2023/06/17 08:44:47;;;;;;;13.05;7.18;;;;;;;;;;6303160;22;20219;-88
2023/06/17 08:47:52;;;;;;;15.38;9.02;;;;;;;;;;6300931;22;20291;-91
2023/06/17 08:50:58;;;;;;;12.68;7.15;;;;;;;;;;6284795;22;20223;-89
2023/06/17 08:54:04;;;;;;;8.98;6.10;;;;;;;;;;6303004;22;20196;-89
2023/06/17 08:57:12;;;;;;;11.73;6.10;;;;;;;;;;6302510;22;20169;-89
2023/06/17 09:00:17;;;;;;;9.20;5.10;;;;;;;;;;6302862;22;20154;-89
2023/06/17 09:03:27;;;;;;;13.65;5.18;;;;;;;;;;6304918;22;20188;-90
2023/06/17 09:06:36;;;;;;;9.02;5.25;;;;;;;;;;6304186;22;20168;-91
2023/06/17 09:09:48;;;;;;;8.68;5.07;;;;;;;;;;6302560;22;20157;-94
2023/06/17 09:12:59;;;;;;;12.10;5.35;;;;;;;;;;6302492;22;20189;-90
2023/06/17 09:16:04;;;;;;;9.43;5.50;;;;;;;;;;6302333;22;20165;-93
2023/06/17 09:22:47;;;;;;;7.20;5.13;;;;;;;;;;6303354;22;20161;-91
2023/06/17 09:26:01;;;;;;;8.70;5.30;;;;;;;;;;6302297;22;20172;-88
2023/06/17 09:29:09;;;;;;;9.32;5.05;;;;;;;;;;6303824;22;20220;-91
2023/06/17 09:32:15;;;;;;;12.43;5.35;;;;;;;;;;6304996;22;20272;-90
2023/06/17 09:35:21;;;;;;;10.73;4.95;;;;;;;;;;6304098;22;20165;-90
2023/06/17 09:38:32;;;;;;;9.93;5.30;;;;;;;;;;6306210;22;20165;-89
2023/06/17 09:41:38;;;;;;;9.13;4.82;;;;;;;;;;6305901;22;20212;-89
2023/06/17 09:44:48;;;;;;;12.25;5.47;;;;;;;;;;6307323;22;20209;-90
2023/06/17 09:47:54;;;;;;;9.85;4.82;;;;;;;;;;6286637;22;20165;-87
2023/06/17 09:51:00;;;;;;;7.05;4.00;;;;;;;;;;6304545;22;20161;-91
2023/06/17 09:54:06;;;;;;;7.90;4.15;;;;;;;;;;6301786;22;20263;-90
2023/06/17 09:57:31;;;;;;;8.57;4.43;;;;;;;;;;6304331;22;20164;-89
2023/06/17 10:00:39;;;;;;;6.18;3.58;;;;;;;;;;6305366;22;20157;-91
2023/06/17 10:03:45;;;;;;;7.95;3.72;;;;;;;;;;6306522;22;20223;-89
2023/06/17 10:06:52;;;;;;;6.25;4.10;;;;;;;;;;6304439;22;20231;-90
2023/06/17 10:09:59;;;;;;;6.43;4.28;;;;;;;;;;6302704;22;20164;-91
2023/06/17 10:13:06;;;;;;;6.15;4.00;;;;;;;;;;6305265;22;20253;-93
2023/06/17 10:16:18;;;;;;;8.18;3.85;;;;;;;;;;6305091;22;20176;-90
2023/06/17 10:19:56;;;;;;;5.65;3.88;;;;;;;;;;6302637;22;20164;-91
2023/06/17 10:23:03;;;;;;;6.65;3.70;;;;;;;;;;6303007;22;20264;-90
2023/06/17 10:26:08;;;;;;;6.18;3.95;;;;;;;;;;6305710;22;20161;-92
2023/06/17 10:29:14;;;;;;;11.30;4.00;;;;;;;;;;6302324;22;20256;-92
2023/06/17 10:32:22;;;;;;;5.10;3.50;;;;;;;;;;6303340;22;20184;-91
2023/06/17 10:35:38;;;;;;;6.18;3.78;;;;;;;;;;6302702;22;20157;-91
2023/06/17 10:38:42;;;;;;;28.02;4.10;;;;;;;;;;6301182;22;20160;-90
2023/06/17 10:41:59;;;;;;;5.93;3.40;;;;;;;;;;6304707;22;20184;-88
2023/06/17 10:45:13;;;;;;;5.40;3.58;;;;;;;;;;6305050;22;20563;-92
2023/06/17 10:48:22;;;;;;;5.15;3.67;;;;;;;;;;6302836;22;20294;-94
2023/06/17 10:51:31;;;;;;;5.00;3.63;;;;;;;;;;6302807;22;20161;-92
2023/06/17 10:54:36;;;;;;;10.13;3.67;;;;;;;;;;6302313;22;20237;-93
2023/06/17 10:57:46;;;;;;;5.80;3.30;;;;;;;;;;6303594;22;20168;-91
2023/06/17 11:01:05;;;;;;;5.68;3.40;;;;;;;;;;6304330;22;20164;-91
2023/06/17 11:04:14;;;;;;;7.15;3.35;;;;;;;;;;6307564;22;20192;-91
2023/06/17 11:07:27;;;;;;;6.57;3.83;;;;;;;;;;6307388;22;20173;-89
2023/06/17 11:10:37;;;;;;;5.43;3.00;;;;;;;;;;6307167;22;20160;-91
2023/06/17 11:13:43;;;;;;;8.25;3.40;;;;;;;;;;6304934;22;20200;-92
2023/06/17 11:16:48;;;;;;;4.85;3.47;;;;;;;;;;6305693;22;20168;-92
2023/06/17 11:19:55;;;;;;;4.22;3.28;;;;;;;;;;6305537;22;20165;-92
2023/06/17 11:23:00;;;;;;;4.50;3.30;;;;;;;;;;6306256;22;20241;-89
2023/06/17 11:26:06;;;;;;;7.28;3.67;;;;;;;;;;6306037;22;20182;-90
2023/06/17 11:29:12;;;;;;;5.35;3.53;;;;;;;;;;6302858;22;20165;-90
2023/06/17 11:32:17;;;;;;;15.50;3.42;;;;;;;;;;6304141;22;20168;-90
2023/06/17 11:35:25;;;;;;;7.30;4.18;;;;;;;;;;6304423;22;20172;-91
2023/06/17 11:38:39;;;;;;;5.50;4.07;;;;;;;;;;6304793;22;20237;-90
2023/06/17 11:41:44;;;;;;;7.72;3.70;;;;;;;;;;6304206;22;20191;-94
2023/06/17 11:44:50;;;;;;;7.10;4.18;;;;;;;;;;6304789;22;20738;-91
2023/06/17 11:47:57;;;;;;;7.25;4.13;;;;;;;;;;6303430;22;20251;-88
2023/06/17 11:51:04;;;;;;;8.40;4.22;;;;;;;;;;6305320;22;20169;-92
2023/06/17 11:54:10;;;;;;;7.00;4.07;;;;;;;;;;6303609;22;20188;-88
2023/06/17 11:57:20;;;;;;;12.77;4.72;;;;;;;;;;6304490;22;20188;-91
2023/06/17 12:00:25;;;;;;;6.57;3.90;;;;;;;;;;6307396;22;20218;-89
2023/06/17 12:03:31;;;;;;;6.35;3.70;;;;;;;;;;6308208;22;20191;-90
2023/06/17 12:09:58;;;;;;;8.38;4.38;;;;;;;;;;6308334;22;20156;-91
2023/06/17 12:13:04;;;;;;;7.32;4.50;;;;;;;;;;6305239;22;20164;-91
2023/06/17 12:16:13;;;;;;;7.63;4.45;;;;;;;;;;6308651;22;20620;-88
2023/06/17 12:19:32;;;;;;;7.10;3.30;;;;;;;;;;6306426;22;20165;-90
2023/06/17 12:22:39;;;;;;;4.40;2.95;;;;;;;;;;6305973;22;20243;-90
2023/06/17 12:25:47;;;;;;;4.60;2.85;;;;;;;;;;6309041;22;20218;-90
2023/06/17 12:28:52;;;;;;;7.53;3.22;;;;;;;;;;6307640;22;20165;-93
2023/06/17 12:31:57;;;;;;;6.47;2.78;;;;;;;;;;6306578;22;20165;-89
2023/06/17 12:35:04;;;;;;;6.28;2.58;;;;;;;;;;6307038;22;20160;-90
2023/06/17 12:38:11;;;;;;;4.75;2.47;;;;;;;;;;6303798;22;20164;-90
2023/06/17 12:41:17;;;;;;;5.60;2.22;;;;;;;;;;6304265;22;20173;-89
2023/06/17 12:44:22;;;;;;;6.30;3.03;;;;;;;;;;6303298;22;20197;-91
2023/06/17 12:47:28;;;;;;;4.63;2.75;;;;;;;;;;6304205;22;20164;-90
2023/06/17 12:50:36;;;;;;;5.55;3.42;;;;;;;;;;6303896;22;20161;-90
2023/06/17 12:53:43;;;;;;;6.13;3.10;;;;;;;;;;6303344;22;20164;-90
2023/06/17 12:56:51;;;;;;;4.90;3.03;;;;;;;;;;6303786;22;20160;-90
2023/06/17 12:59:57;;;;;;;5.47;2.78;;;;;;;;;;6303706;22;20172;-92
2023/06/17 13:03:02;;;;;;;3.40;2.25;;;;;;;;;;6305470;22;20161;-89
2023/06/17 13:06:07;;;;;;;7.45;2.60;;;;;;;;;;6305017;22;20164;-89
2023/06/17 13:09:14;;;;;;;5.10;2.58;;;;;;;;;;6305995;22;20161;-91
2023/06/17 13:12:21;;;;;;;4.78;2.30;;;;;;;;;;6305518;22;20181;-89
2023/06/17 13:15:29;;;;;;;6.25;2.78;;;;;;;;;;6309209;22;20173;-89
2023/06/17 13:18:34;;;;;;;9.75;2.75;;;;;;;;;;6307264;22;20169;-93
2023/06/17 13:21:40;;;;;;;5.28;2.60;;;;;;;;;;6311225;22;20165;-91
2023/06/17 13:24:54;;;;;;;4.40;2.65;;;;;;;;;;6309454;22;20184;-91
2023/06/17 13:28:00;;;;;;;6.43;2.47;;;;;;;;;;6308378;22;20169;-90
2023/06/17 13:31:06;;;;;;;4.45;3.03;;;;;;;;;;6309031;22;20219;-90
2023/06/17 13:34:13;;;;;;;4.47;2.70;;;;;;;;;;6310569;22;20224;-87
2023/06/17 13:37:20;;;;;;;4.07;2.70;;;;;;;;;;6308210;22;20172;-90
2023/06/17 13:40:28;;;;;;;6.15;2.97;;;;;;;;;;6310124;22;20184;-91
2023/06/17 13:43:33;;;;;;;4.40;3.08;;;;;;;;;;6309032;22;20275;-90
2023/06/17 13:46:39;;;;;;;8.32;3.20;;;;;;;;;;6305826;22;20214;-92
2023/06/17 13:49:44;;;;;;;8.50;3.00;;;;;;;;;;6305917;22;20287;-91
2023/06/17 13:52:50;;;;;;;6.03;3.17;;;;;;;;;;6305704;22;20579;-88
2023/06/17 13:55:57;;;;;;;6.07;3.13;;;;;;;;;;6306057;22;20164;-91
2023/06/17 13:59:02;;;;;;;4.15;3.03;;;;;;;;;;6307523;22;20160;-90
2023/06/17 14:02:12;;;;;;;4.28;2.97;;;;;;;;;;6308806;22;20145;-90
2023/06/17 14:08:36;;;;;;;7.10;3.70;;;;;;;;;;6307370;22;20161;-89
2023/06/17 14:11:44;;;;;;;6.78;4.05;;;;;;;;;;6307540;22;20214;-90
2023/06/17 14:14:50;;;;;;;4.35;3.33;;;;;;;;;;6307247;22;20207;-89
2023/06/17 14:17:59;;;;;;;7.05;3.25;;;;;;;;;;6305604;22;20172;-91
2023/06/17 14:21:05;;;;;;;5.28;3.30;;;;;;;;;;6308778;22;20205;-89
2023/06/17 14:24:11;;;;;;;6.20;4.00;;;;;;;;;;6309838;22;20231;-91
2023/06/17 14:27:25;;;;;;;6.88;3.40;;;;;;;;;;6311352;22;20209;-89
2023/06/17 14:30:31;;;;;;;7.97;3.55;;;;;;;;;;6311790;22;20167;-92
2023/06/17 14:33:36;;;;;;;10.35;3.80;;;;;;;;;;6309288;22;20161;-93
2023/06/17 14:36:42;;;;;;;5.15;3.47;;;;;;;;;;6306814;22;20257;-88
2023/06/17 14:39:48;;;;;;;7.72;3.70;;;;;;;;;;6311488;22;20179;-91
2023/06/17 14:42:55;;;;;;;5.30;3.65;;;;;;;;;;6310939;22;20168;-90
2023/06/17 14:46:00;;;;;;;8.40;3.60;;;;;;;;;;6307730;22;20163;-90
2023/06/17 14:49:05;;;;;;;6.95;3.85;;;;;;;;;;6306803;22;20164;-89
2023/06/17 14:52:13;;;;;;;5.18;3.55;;;;;;;;;;6303694;22;20164;-89
2023/06/17 14:55:18;;;;;;;6.65;3.85;;;;;;;;;;6305063;22;20180;-90
2023/06/17 14:58:25;;;;;;;7.45;3.63;;;;;;;;;;6304868;22;20597;-89
2023/06/17 15:01:32;;;;;;;6.55;3.75;;;;;;;;;;6305902;22;20167;-91
2023/06/17 15:04:37;;;;;;;5.45;4.20;;;;;;;;;;6306778;22;20204;-91
2023/06/17 15:07:42;;;;;;;10.82;5.70;;;;;;;;;;6304905;22;20168;-88
2023/06/17 15:10:48;;;;;;;13.82;6.15;;;;;;;;;;6305524;22;20601;-90
2023/06/17 15:13:55;;;;;;;7.35;4.75;;;;;;;;;;6307771;22;20173;-91
2023/06/17 15:17:01;;;;;;;6.30;4.40;;;;;;;;;;6306774;22;20165;-91
2023/06/17 15:20:07;;;;;;;6.00;3.85;;;;;;;;;;6306290;22;20164;-92
2023/06/17 15:23:13;;;;;;;5.65;3.85;;;;;;;;;;6305207;22;20169;-87
2023/06/17 15:26:18;;;;;;;8.30;4.65;;;;;;;;;;6306285;22;20173;-91
2023/06/17 15:29:31;;;;;;;6.80;4.20;;;;;;;;;;6307257;22;20231;-89
2023/06/17 15:32:37;;;;;;;6.70;3.85;;;;;;;;;;6306071;22;20180;-90
2023/06/17 15:35:42;;;;;;;8.52;3.88;;;;;;;;;;6309423;22;20215;-90
2023/06/17 15:38:47;;;;;;;9.27;4.53;;;;;;;;;;6305630;22;20153;-90
2023/06/17 15:41:53;;;;;;;6.63;4.47;;;;;;;;;;6306676;22;20188;-92
2023/06/17 15:45:00;;;;;;;11.40;4.82;;;;;;;;;;6307320;22;20193;-91
2023/06/17 15:48:05;;;;;;;9.48;4.80;;;;;;;;;;6304943;22;20160;-88
2023/06/17 15:51:11;;;;;;;6.50;4.22;;;;;;;;;;6306229;22;20161;-89
2023/06/17 15:54:18;;;;;;;8.43;4.47;;;;;;;;;;6309032;22;20161;-89
2023/06/17 15:57:25;;;;;;;8.70;5.13;;;;;;;;;;6306584;22;20181;-91
2023/06/17 16:00:42;;;;;;;8.52;4.35;;;;;;;;;;6307989;22;20189;-91
2023/06/17 16:03:48;;;;;;;7.18;4.18;;;;;;;;;;6306719;22;20212;-90
2023/06/17 16:06:53;;;;;;;6.57;4.00;;;;;;;;;;6305982;22;20220;-91
2023/06/17 16:10:00;;;;;;;9.80;4.70;;;;;;;;;;6307038;22;20165;-89
2023/06/17 16:13:05;;;;;;;8.43;4.55;;;;;;;;;;6303857;22;20169;-91
2023/06/17 16:16:12;;;;;;;7.97;4.35;;;;;;;;;;6304104;22;20168;-89
2023/06/17 16:19:17;;;;;;;6.85;4.22;;;;;;;;;;6303949;22;20735;-88
2023/06/17 16:22:23;;;;;;;7.47;4.72;;;;;;;;;;6305070;22;20217;-87
2023/06/17 16:25:28;;;;;;;9.13;5.05;;;;;;;;;;6303570;22;20192;-90
2023/06/17 16:28:34;;;;;;;8.05;4.85;;;;;;;;;;6303487;22;20215;-92
2023/06/17 16:31:41;;;;;;;8.30;4.78;;;;;;;;;;6305305;22;20165;-92
2023/06/17 16:34:46;;;;;;;7.65;4.60;;;;;;;;;;6304928;22;20169;-92
2023/06/17 16:37:52;;;;;;;11.05;5.72;;;;;;;;;;6302553;22;20173;-90
2023/06/17 16:40:57;;;;;;;9.10;4.85;;;;;;;;;;6304529;22;20188;-91
2023/06/17 16:44:03;;;;;;;8.30;4.70;;;;;;;;;;6307126;22;20173;-91
2023/06/17 16:47:10;;;;;;;10.10;4.85;;;;;;;;;;6307538;22;20192;-90
2023/06/17 16:50:15;;;;;;;8.38;4.32;;;;;;;;;;6305368;22;20283;-91
2023/06/17 16:53:20;;;;;;;11.07;5.00;;;;;;;;;;6306276;22;20164;-88
2023/06/17 16:56:28;;;;;;;8.85;4.57;;;;;;;;;;6307083;22;20176;-92
2023/06/17 16:59:39;;;;;;;8.20;4.47;;;;;;;;;;6303460;22;20180;-91
2023/06/17 17:02:55;;;;;;;8.55;4.82;;;;;;;;;;6308103;22;20165;-90
2023/06/17 17:06:01;;;;;;;11.05;5.65;;;;;;;;;;6306845;22;20192;-90
2023/06/17 17:09:06;;;;;;;9.95;5.00;;;;;;;;;;6306723;22;20145;-90
2023/06/17 17:12:12;;;;;;;10.95;4.90;;;;;;;;;;6306732;22;20264;-89
2023/06/17 17:15:19;;;;;;;7.10;4.78;;;;;;;;;;6305587;22;20173;-88
2023/06/17 17:18:27;;;;;;;11.15;6.28;;;;;;;;;;6304089;22;20181;-87
2023/06/17 17:21:33;;;;;;;11.15;5.65;;;;;;;;;;6302651;22;20177;-88
2023/06/17 17:24:39;;;;;;;7.55;5.28;;;;;;;;;;6301316;22;20562;-90
2023/06/17 17:27:45;;;;;;;9.95;4.88;;;;;;;;;;6302597;22;20191;-90
2023/06/17 17:30:50;;;;;;;9.57;5.20;;;;;;;;;;6301601;22;20164;-91
2023/06/17 17:33:56;;;;;;;9.60;5.03;;;;;;;;;;6300243;22;20592;-88
2023/06/17 17:37:03;;;;;;;9.88;5.45;;;;;;;;;;6304998;22;20170;-91
2023/06/17 17:40:08;;;;;;;10.07;5.15;;;;;;;;;;6300060;22;20526;-88
2023/06/17 17:43:14;;;;;;;10.65;5.90;;;;;;;;;;6302140;22;20169;-89
2023/06/17 17:46:18;;;;;;;11.23;4.68;;;;;;;;;;6303767;22;20208;-89
2023/06/17 17:49:25;;;;;;;9.00;4.72;;;;;;;;;;6318138;22;20547;-86
2023/06/17 17:52:30;;;;;;;11.75;4.90;;;;;;;;;;6300703;22;20157;-88
2023/06/17 17:55:35;;;;;;;6.85;4.90;;;;;;;;;;6299219;22;20491;-90
2023/06/17 17:58:41;;;;;;;8.70;4.50;;;;;;;;;;6300941;22;20192;-90
2023/06/17 18:01:49;;;;;;;9.65;4.60;;;;;;;;;;6299991;22;20165;-87
2023/06/17 18:04:56;;;;;;;7.32;4.68;;;;;;;;;;6300091;22;20193;-89
2023/06/17 18:08:01;;;;;;;9.65;5.55;;;;;;;;;;6300104;22;20157;-88
2023/06/17 18:11:07;;;;;;;12.10;5.32;;;;;;;;;;6299182;22;20165;-89
2023/06/17 18:14:12;;;;;;;11.15;5.80;;;;;;;;;;6302452;22;20149;-88
2023/06/17 18:17:17;;;;;;;8.70;5.57;;;;;;;;;;6302404;22;20169;-90
2023/06/17 18:20:23;;;;;;;10.32;5.05;;;;;;;;;;6303935;22;20169;-90
2023/06/17 18:23:28;;;;;;;10.18;5.00;;;;;;;;;;6302986;22;20196;-89
2023/06/17 18:26:34;;;;;;;12.82;5.30;;;;;;;;;;6304040;22;20235;-87
2023/06/17 18:29:39;;;;;;;9.93;5.63;;;;;;;;;;6304788;22;20199;-90
2023/06/17 18:32:44;;;;;;;13.90;6.40;;;;;;;;;;6304239;22;20180;-87
2023/06/17 18:35:51;;;;;;;12.75;5.78;;;;;;;;;;6305931;22;20169;-89
2023/06/17 18:38:57;;;;;;;13.43;6.28;;;;;;;;;;6304354;22;20149;-89
2023/06/17 18:42:02;;;;;;;11.15;5.40;;;;;;;;;;6303511;22;20269;-88
2023/06/17 18:45:08;;;;;;;11.77;6.45;;;;;;;;;;6303511;22;20527;-90